createdAt,value
2022-12-20T00:01:59.850Z,62402.38
2022-12-20T00:04:27.952Z,62402.38
2022-12-20T00:06:54.730Z,62402.38
2022-12-20T00:09:21.545Z,62402.38
2022-12-20T00:11:48.189Z,62402.38
2022-12-20T00:14:14.837Z,62402.38
2022-12-20T00:16:41.505Z,62402.38
2022-12-20T00:19:09.697Z,62402.38
2022-12-20T00:21:38.196Z,62402.38
2022-12-20T00:24:06.190Z,62402.38
2022-12-20T00:26:34.840Z,62402.38
2022-12-20T00:29:02.236Z,62402.38
2022-12-20T00:31:30.438Z,62402.38
2022-12-20T00:33:58.453Z,62402.38
2022-12-20T00:36:27.235Z,62402.38
2022-12-20T00:38:56.785Z,62402.38
2022-12-20T00:41:25.342Z,62402.38
2022-12-20T00:43:52.771Z,62402.38
2022-12-20T00:46:21.003Z,62402.38
2022-12-20T00:48:47.735Z,62402.38
2022-12-20T00:51:16.871Z,62402.38
2022-12-20T00:53:44.577Z,62402.38
2022-12-20T00:56:12.909Z,62402.38
2022-12-20T00:58:41.728Z,62402.38
2022-12-20T01:01:19.853Z,62402.38
2022-12-20T01:03:46.598Z,62402.38
2022-12-20T01:06:13.634Z,62402.38
2022-12-20T01:08:40.335Z,62402.38
2022-12-20T01:11:08.762Z,62402.38
2022-12-20T01:13:38.751Z,62402.38
2022-12-20T01:16:06.982Z,62402.38
2022-12-20T01:18:34.112Z,62402.38
2022-12-20T01:21:02.474Z,62402.38
2022-12-20T01:23:29.746Z,62402.38
2022-12-20T01:25:58.967Z,62402.38
2022-12-20T01:28:25.777Z,62402.38
2022-12-20T01:30:53.826Z,62402.38
2022-12-20T01:33:20.587Z,62402.38
2022-12-20T01:35:55.780Z,62402.38
2022-12-20T01:38:22.476Z,62402.38
2022-12-20T01:40:49.267Z,62402.38
2022-12-20T01:43:17.749Z,62402.38
2022-12-20T01:45:44.647Z,62402.38
2022-12-20T01:48:14.846Z,62402.38
2022-12-20T01:50:42.011Z,62402.38
2022-12-20T01:53:10.231Z,62402.38
2022-12-20T01:55:37.477Z,62402.38
2022-12-20T01:58:08.391Z,62402.38
2022-12-20T02:00:35.026Z,62402.38
2022-12-20T02:03:05.808Z,62402.38
2022-12-20T02:05:36.063Z,62402.38
2022-12-20T02:08:04.661Z,62402.38
2022-12-20T02:10:43.655Z,62402.38
2022-12-20T02:13:20.100Z,62402.38
2022-12-20T02:15:55.083Z,62402.38
2022-12-20T02:18:26.223Z,62402.38
2022-12-20T02:21:07.697Z,62402.38
2022-12-20T02:23:53.877Z,97977.59
2022-12-20T02:26:50.598Z,97979.34
2022-12-20T02:29:30.185Z,97971.06
2022-12-20T02:32:04.781Z,97971.19
2022-12-20T02:34:35.173Z,62402.38
2022-12-20T02:37:01.955Z,62402.38
2022-12-20T02:39:31.163Z,62402.38
2022-12-20T02:42:01.641Z,62402.38
2022-12-20T02:44:49.646Z,62402.38
2022-12-20T02:47:23.786Z,62402.38
2022-12-20T02:49:51.433Z,62402.38
2022-12-20T02:52:20.706Z,62402.38
2022-12-20T02:54:47.865Z,97971.19
2022-12-20T02:57:20.716Z,62402.38
2022-12-20T02:59:55.573Z,62402.38
2022-12-20T03:02:25.315Z,62402.38
2022-12-20T03:04:53.623Z,62402.38
2022-12-20T03:07:22.727Z,62402.38
2022-12-20T03:09:49.450Z,62402.38
2022-12-20T03:12:16.365Z,62402.38
2022-12-20T03:14:43.089Z,97987.03
2022-12-20T03:17:10.377Z,97994.25
2022-12-20T03:19:38.677Z,98003.16
2022-12-20T03:22:05.419Z,98005.13
2022-12-20T03:24:32.680Z,98001.00
2022-12-20T03:26:59.500Z,98000.19
2022-12-20T03:29:26.465Z,98007.59
2022-12-20T03:31:53.234Z,97993.34
2022-12-20T03:34:19.943Z,98000.19
2022-12-20T03:36:48.035Z,97993.13
2022-12-20T03:39:14.659Z,97984.81
2022-12-20T03:41:41.355Z,97975.72
2022-12-20T03:44:08.407Z,97961.66
2022-12-20T03:46:35.163Z,97957.34
2022-12-20T03:49:01.941Z,97951.19
2022-12-20T03:51:28.712Z,97948.78
2022-12-20T03:53:56.734Z,97945.56
2022-12-20T03:56:23.633Z,97955.50
2022-12-20T03:58:50.437Z,97968.91
2022-12-20T04:01:22.739Z,97970.88
2022-12-20T04:03:49.673Z,97963.94
2022-12-20T04:06:17.247Z,97967.09
2022-12-20T04:08:44.212Z,97976.13
2022-12-20T04:11:19.241Z,97966.88
2022-12-20T04:13:47.786Z,97971.41
2022-12-20T04:16:15.906Z,97966.59
2022-12-20T04:18:42.949Z,97958.38
2022-12-20T04:21:10.307Z,97947.78
2022-12-20T04:23:39.377Z,97963.88
2022-12-20T04:26:07.654Z,97941.84
2022-12-20T04:28:36.286Z,97954.94
2022-12-20T04:31:03.093Z,97952.13
2022-12-20T04:33:29.903Z,97944.84
2022-12-20T04:35:56.699Z,97940.22
2022-12-20T04:38:23.701Z,97940.41
2022-12-20T04:40:50.993Z,97935.56
2022-12-20T04:43:18.055Z,97950.84
2022-12-20T04:45:47.994Z,97941.09
2022-12-20T04:48:54.415Z,97941.75
2022-12-20T04:51:01.610Z,97956.19
2022-12-20T04:53:46.642Z,97961.38
2022-12-20T04:56:14.418Z,97946.88
2022-12-20T04:58:41.710Z,97947.81
2022-12-20T05:01:09.795Z,97954.31
2022-12-20T05:03:36.843Z,97945.25
2022-12-20T05:06:03.718Z,97935.34
2022-12-20T05:08:30.349Z,97927.09
2022-12-20T05:10:57.055Z,97923.34
2022-12-20T05:13:23.889Z,97927.41
2022-12-20T05:15:52.176Z,97933.09
2022-12-20T05:18:20.441Z,97924.56
2022-12-20T05:20:47.818Z,97927.34
2022-12-20T05:23:33.404Z,97929.03
2022-12-20T05:26:18.379Z,97930.66
2022-12-20T05:28:45.114Z,97931.19
2022-12-20T05:31:11.891Z,97936.88
2022-12-20T05:33:39.924Z,62402.38
2022-12-20T05:36:07.100Z,62402.38
2022-12-20T05:38:33.836Z,97917.38
2022-12-20T05:41:00.488Z,62402.38
2022-12-20T05:43:27.166Z,62402.38
2022-12-20T05:45:53.946Z,62402.38
2022-12-20T05:48:20.881Z,62402.38
2022-12-20T05:50:49.165Z,62402.38
2022-12-20T05:53:17.203Z,97892.72
2022-12-20T05:55:45.144Z,97888.47
2022-12-20T05:58:13.619Z,97879.88
2022-12-20T06:00:40.664Z,62402.38
2022-12-20T06:03:09.407Z,62402.38
2022-12-20T06:05:36.737Z,62402.38
2022-12-20T06:08:05.910Z,62402.38
2022-12-20T06:10:32.912Z,62402.38
2022-12-20T06:13:00.030Z,62402.38
2022-12-20T06:15:26.785Z,62402.38
2022-12-20T06:17:53.461Z,97874.81
2022-12-20T06:20:20.145Z,97877.25
2022-12-20T06:22:46.924Z,97881.06
2022-12-20T06:25:15.308Z,97877.06
2022-12-20T06:27:42.377Z,97875.50
2022-12-20T06:30:10.368Z,97880.69
2022-12-20T06:32:37.098Z,97876.97
2022-12-20T06:35:04.303Z,97883.75
2022-12-20T06:37:32.112Z,97897.22
2022-12-20T06:39:58.984Z,97893.78
2022-12-20T06:42:27.146Z,97894.59
2022-12-20T06:44:54.109Z,97891.44
2022-12-20T06:47:20.770Z,97903.78
2022-12-20T06:49:47.608Z,97904.34
2022-12-20T06:52:14.297Z,62402.38
2022-12-20T06:54:41.128Z,62402.38
2022-12-20T06:57:08.142Z,62402.38
2022-12-20T06:59:36.177Z,62402.38
2022-12-20T07:02:03.227Z,62402.38
2022-12-20T07:04:30.890Z,62402.38
2022-12-20T07:06:57.592Z,62402.38
2022-12-20T07:09:24.415Z,62402.38
2022-12-20T07:11:52.080Z,62402.38
2022-12-20T07:14:18.822Z,62402.38
2022-12-20T07:16:47.053Z,62402.38
2022-12-20T07:19:15.557Z,62402.38
2022-12-20T07:21:42.453Z,62402.38
2022-12-20T07:24:09.558Z,62402.38
2022-12-20T07:26:36.326Z,62402.38
2022-12-20T07:29:04.087Z,62402.38
2022-12-20T07:31:30.952Z,62402.38
2022-12-20T07:33:59.061Z,62402.38
2022-12-20T07:36:25.792Z,62402.38
2022-12-20T07:38:52.509Z,62402.38
2022-12-20T07:41:19.431Z,62402.38
2022-12-20T07:43:46.520Z,62402.38
2022-12-20T07:46:14.810Z,62402.38
2022-12-20T07:48:41.613Z,62402.38
2022-12-20T07:51:13.077Z,62402.38
2022-12-20T07:53:43.734Z,62402.38
2022-12-20T07:56:12.670Z,62402.38
2022-12-20T07:58:41.316Z,62402.38
2022-12-20T08:01:10.273Z,62402.38
2022-12-20T08:03:41.575Z,62402.38
2022-12-20T08:06:10.232Z,62402.38
2022-12-20T08:08:40.348Z,62402.38
2022-12-20T08:11:08.928Z,62402.38
2022-12-20T08:13:39.441Z,62402.38
2022-12-20T08:16:11.113Z,62402.38
2022-12-20T08:18:37.762Z,62402.38
2022-12-20T08:21:06.865Z,62402.38
2022-12-20T08:23:35.021Z,62402.38
2022-12-20T08:26:02.126Z,62402.38
2022-12-20T08:28:28.838Z,62402.38
2022-12-20T08:31:01.613Z,62402.38
2022-12-20T08:33:28.766Z,62402.38
2022-12-20T08:35:59.352Z,62402.38
2022-12-20T08:38:27.768Z,62402.38
2022-12-20T08:40:55.970Z,62402.38
2022-12-20T08:43:22.902Z,62402.38
2022-12-20T08:45:53.671Z,62402.38
2022-12-20T08:48:20.476Z,62402.38
2022-12-20T08:50:47.458Z,62402.38
2022-12-20T08:53:14.133Z,62402.38
2022-12-20T08:55:40.840Z,62402.38
2022-12-20T08:58:09.380Z,62402.38
2022-12-20T09:00:36.524Z,62402.38
2022-12-20T09:03:03.485Z,62402.38
2022-12-20T09:05:30.475Z,62402.38
2022-12-20T09:07:57.226Z,62402.38
2022-12-20T09:10:23.897Z,62402.38
2022-12-20T09:12:50.647Z,62402.38
2022-12-20T09:15:18.708Z,62402.38
2022-12-20T09:17:47.438Z,62402.38
2022-12-20T09:20:15.685Z,62402.38
2022-12-20T09:22:42.370Z,62402.38
2022-12-20T09:25:09.596Z,62402.38
2022-12-20T09:27:36.362Z,62402.38
2022-12-20T09:30:03.097Z,62402.38
2022-12-20T09:32:31.084Z,62402.38
2022-12-20T09:34:57.791Z,62402.38
2022-12-20T09:37:24.427Z,62402.38
2022-12-20T09:39:51.657Z,62402.38
2022-12-20T09:42:22.289Z,62402.38
2022-12-20T09:44:49.340Z,62402.38
2022-12-20T09:47:19.490Z,62402.38
2022-12-20T09:49:49.573Z,62402.38
2022-12-20T09:52:29.459Z,62402.38
2022-12-20T09:55:06.248Z,62402.38
2022-12-20T09:57:47.787Z,62402.38
2022-12-20T10:00:16.251Z,62402.38
2022-12-20T10:05:41.497Z,62402.38
2022-12-20T10:08:22.039Z,62402.38
2022-12-20T10:10:56.118Z,62402.38
2022-12-20T10:13:38.059Z,62402.38
2022-12-20T10:16:18.197Z,62402.38
2022-12-20T10:19:00.427Z,62402.38
2022-12-20T10:21:38.558Z,62402.38
2022-12-20T10:24:12.114Z,62402.38
2022-12-20T10:26:38.793Z,62402.38
2022-12-20T10:29:05.668Z,62402.38
2022-12-20T10:31:32.476Z,62402.38
2022-12-20T10:33:59.328Z,97904.34
2022-12-20T10:36:28.776Z,97768.88
2022-12-20T10:38:57.519Z,97761.25
2022-12-20T10:41:26.166Z,97772.44
2022-12-20T10:43:59.064Z,97757.69
2022-12-20T10:46:37.025Z,62402.38
2022-12-20T10:49:23.414Z,62402.38
2022-12-20T10:51:56.775Z,62402.38
2022-12-20T10:54:30.476Z,97729.31
2022-12-20T10:56:59.270Z,97733.00
2022-12-20T10:59:33.697Z,97731.69
2022-12-20T11:02:00.678Z,97731.75
2022-12-20T11:04:30.208Z,97733.56
2022-12-20T11:07:00.166Z,97716.25
2022-12-20T11:09:31.905Z,97687.50
2022-12-20T11:12:04.540Z,97712.00
2022-12-20T11:14:38.645Z,62402.38
2022-12-20T11:17:17.425Z,62402.38
2022-12-20T11:20:01.038Z,62402.38
2022-12-20T11:22:41.307Z,62402.38
2022-12-20T11:25:22.963Z,62402.38
2022-12-20T11:27:59.914Z,62402.38
2022-12-20T11:30:35.084Z,62402.38
2022-12-20T11:33:14.187Z,62402.38
2022-12-20T11:35:50.807Z,62402.38
2022-12-20T11:38:36.180Z,62402.38
2022-12-20T11:41:16.586Z,62402.38
2022-12-20T11:44:24.562Z,62402.38
2022-12-20T11:47:01.057Z,97695.59
2022-12-20T11:49:50.674Z,97686.72
2022-12-20T11:52:28.510Z,97699.84
2022-12-20T11:55:06.284Z,97681.59
2022-12-20T11:58:02.140Z,97678.88
2022-12-20T12:00:28.135Z,97674.34
2022-12-20T12:03:01.578Z,97684.56
2022-12-20T12:05:41.827Z,97679.84
2022-12-20T12:08:18.507Z,97682.03
2022-12-20T12:10:54.122Z,97677.44
2022-12-20T12:13:27.543Z,97674.72
2022-12-20T12:16:01.528Z,97674.47
2022-12-20T12:18:31.509Z,97668.59
2022-12-20T12:21:08.988Z,97668.03
2022-12-20T12:23:45.027Z,97668.81
2022-12-20T12:26:19.069Z,97671.22
2022-12-20T12:28:48.470Z,97671.50
2022-12-20T12:31:22.206Z,97669.38
2022-12-20T12:33:58.576Z,97649.75
2022-12-20T12:36:52.784Z,97644.06
2022-12-20T12:39:38.522Z,97647.53
2022-12-20T12:42:22.946Z,97650.22
2022-12-20T12:44:54.928Z,97641.06
2022-12-20T12:47:25.060Z,97641.06
2022-12-20T12:49:54.686Z,97647.88
2022-12-20T12:52:36.165Z,97621.53
2022-12-20T12:55:03.093Z,97631.22
2022-12-20T12:57:57.380Z,97620.75
2022-12-20T13:00:50.452Z,97615.94
2022-12-20T13:03:38.878Z,97622.66
2022-12-20T13:06:44.691Z,97597.44
2022-12-20T13:09:21.011Z,97604.72
2022-12-20T13:11:55.293Z,97591.84
2022-12-20T13:14:49.991Z,97593.50
2022-12-20T13:17:51.024Z,97601.84
2022-12-20T13:20:21.054Z,97607.75
2022-12-20T13:23:15.476Z,97596.19
2022-12-20T13:25:44.492Z,97597.81
2022-12-20T13:28:45.629Z,62402.38
2022-12-20T13:31:33.228Z,62402.38
2022-12-20T13:34:01.886Z,62402.38
2022-12-20T13:36:34.931Z,62402.38
2022-12-20T13:39:34.201Z,62402.38
2022-12-20T13:42:23.976Z,62402.38
2022-12-20T13:44:55.858Z,62402.38
2022-12-20T13:47:37.802Z,62402.38
2022-12-20T13:50:31.303Z,62402.38
2022-12-20T13:52:58.621Z,62402.38
2022-12-20T13:55:32.816Z,62402.38
2022-12-20T13:58:06.345Z,62402.38
2022-12-20T14:00:34.062Z,62402.38
2022-12-20T14:03:02.890Z,62402.38
2022-12-20T14:05:36.588Z,62402.38
2022-12-20T14:08:06.991Z,62402.38
2022-12-20T14:10:35.265Z,62402.38
2022-12-20T14:13:02.388Z,62402.38
2022-12-20T14:15:31.594Z,62402.38
2022-12-20T14:18:06.987Z,62402.38
2022-12-20T14:20:36.936Z,62402.38
2022-12-20T14:23:06.828Z,62402.38
2022-12-20T14:25:42.383Z,62402.38
2022-12-20T14:28:24.760Z,62402.38
2022-12-20T14:30:54.008Z,62402.38
2022-12-20T14:33:30.728Z,62402.38
2022-12-20T14:35:59.971Z,62402.38
2022-12-20T14:38:30.824Z,62402.38
2022-12-20T14:40:57.731Z,62402.38
2022-12-20T14:43:28.791Z,62402.38
2022-12-20T14:46:16.889Z,62402.38
2022-12-20T14:48:45.716Z,62402.38
2022-12-20T14:51:19.217Z,62402.38
2022-12-20T14:53:47.749Z,62402.38
2022-12-20T14:56:18.369Z,62402.38
2022-12-20T14:58:45.085Z,62402.38
2022-12-20T15:01:20.717Z,62402.38
2022-12-20T15:03:55.839Z,62402.38
2022-12-20T15:06:33.824Z,62402.38
2022-12-20T15:09:01.698Z,62402.38
2022-12-20T15:11:28.655Z,62402.38
2022-12-20T15:13:57.020Z,62402.38
2022-12-20T15:16:25.735Z,62402.38
2022-12-20T15:18:55.939Z,62402.38
2022-12-20T15:21:28.998Z,62402.38
2022-12-20T15:23:57.361Z,62402.38
2022-12-20T15:26:26.033Z,62402.38
2022-12-20T15:28:53.664Z,62402.38
2022-12-20T15:31:30.672Z,62402.38
2022-12-20T15:34:03.627Z,62402.38
2022-12-20T15:36:30.481Z,62402.38
2022-12-20T15:39:15.659Z,62402.38
2022-12-20T15:41:46.327Z,62402.38
2022-12-20T15:44:16.270Z,62402.38
2022-12-20T15:46:44.321Z,62402.38
2022-12-20T15:49:16.035Z,62402.38
2022-12-20T15:51:44.275Z,62402.38
2022-12-20T15:54:22.680Z,62402.38
2022-12-20T15:56:49.585Z,62402.38
2022-12-20T15:59:56.983Z,62402.38
2022-12-20T16:02:03.860Z,62402.38
2022-12-20T16:04:32.113Z,62402.38
2022-12-20T16:06:58.777Z,62402.38
2022-12-20T16:09:26.116Z,97531.72
2022-12-20T16:11:53.085Z,97523.59
2022-12-20T16:14:21.424Z,97531.50
2022-12-20T16:16:50.132Z,62402.38
2022-12-20T16:19:17.434Z,62402.38
2022-12-20T16:21:47.754Z,62402.38
2022-12-20T16:24:15.976Z,62402.38
2022-12-20T16:26:52.575Z,62402.38
2022-12-20T16:29:19.589Z,62402.38
2022-12-20T16:31:46.518Z,62402.38
2022-12-20T16:34:21.891Z,62402.38
2022-12-20T16:36:51.066Z,62402.38
2022-12-20T16:39:17.920Z,62402.38
2022-12-20T16:41:44.936Z,62402.38
2022-12-20T16:44:14.403Z,62402.38
2022-12-20T16:46:41.547Z,62402.38
2022-12-20T16:49:19.539Z,62402.38
2022-12-20T16:51:49.028Z,62402.38
2022-12-20T16:54:21.094Z,62402.38
2022-12-20T16:56:51.069Z,62402.38
2022-12-20T16:59:20.705Z,62402.38
2022-12-20T17:01:51.496Z,62402.38
2022-12-20T17:04:19.952Z,62402.38
2022-12-20T17:06:47.049Z,62402.38
2022-12-20T17:09:14.027Z,62402.38
2022-12-20T17:11:42.343Z,62402.38
2022-12-20T17:14:13.076Z,62402.38
2022-12-20T17:16:40.119Z,62402.38
2022-12-20T17:19:06.909Z,62402.38
2022-12-20T17:24:22.542Z,62402.38
2022-12-20T17:26:50.990Z,62402.38
2022-12-20T17:29:18.038Z,62402.38
2022-12-20T17:31:46.443Z,62402.38
2022-12-20T17:34:18.897Z,62402.38
2022-12-20T17:36:46.709Z,62402.38
2022-12-20T17:39:13.666Z,62402.38
2022-12-20T17:41:42.670Z,62402.38
2022-12-20T17:44:17.781Z,62402.38
2022-12-20T17:46:44.630Z,62402.38
2022-12-20T17:49:11.925Z,62402.38
2022-12-20T17:51:38.795Z,62402.38
2022-12-20T17:54:06.418Z,62402.38
2022-12-20T17:56:35.760Z,62402.38
2022-12-20T17:59:06.321Z,62402.38
2022-12-20T18:01:37.715Z,62402.38
2022-12-20T18:04:07.359Z,62402.38
2022-12-20T18:06:37.750Z,62402.38
2022-12-20T18:09:08.115Z,62402.38
2022-12-20T18:11:35.134Z,62402.38
2022-12-20T18:14:03.721Z,62402.38
2022-12-20T18:16:32.782Z,62402.38
2022-12-20T18:19:01.769Z,62402.38
2022-12-20T18:21:28.801Z,62402.38
2022-12-20T18:23:55.595Z,62402.38
2022-12-20T18:26:24.899Z,62402.38
2022-12-20T18:28:54.326Z,62402.38
2022-12-20T18:31:22.635Z,62402.38
2022-12-20T18:33:55.667Z,62402.38
2022-12-20T18:36:27.606Z,62402.38
2022-12-20T18:38:54.434Z,62402.38
2022-12-20T18:41:26.017Z,62402.38
2022-12-20T18:43:57.264Z,62402.38
2022-12-20T18:46:26.037Z,62402.38
2022-12-20T18:48:55.158Z,62402.38
2022-12-20T18:51:23.693Z,62402.38
2022-12-20T18:53:54.709Z,62402.38
2022-12-20T18:56:25.204Z,62402.38
2022-12-20T18:58:52.167Z,62402.38
2022-12-20T19:01:21.111Z,62402.38
2022-12-20T19:03:50.042Z,62402.38
2022-12-20T19:06:16.995Z,62402.38
2022-12-20T19:08:43.953Z,62402.38
2022-12-20T19:11:13.808Z,62402.38
2022-12-20T19:13:44.699Z,62402.38
2022-12-20T19:16:13.611Z,62402.38
2022-12-20T19:18:41.131Z,62402.38
2022-12-20T19:21:09.899Z,62402.38
2022-12-20T19:23:38.127Z,62402.38
2022-12-20T19:26:06.617Z,62402.38
2022-12-20T19:28:35.375Z,62402.38
2022-12-20T19:31:06.363Z,62402.38
2022-12-20T19:33:35.874Z,62402.38
2022-12-20T19:36:08.230Z,62402.38
2022-12-20T19:38:34.971Z,62402.38
2022-12-20T19:41:02.824Z,62402.38
2022-12-20T19:43:29.817Z,62402.38
2022-12-20T19:45:58.781Z,62402.38
2022-12-20T19:48:27.089Z,62402.38
2022-12-20T19:51:01.968Z,62402.38
2022-12-20T19:53:28.809Z,62402.38
2022-12-20T19:55:55.660Z,62402.38
2022-12-20T19:58:22.514Z,62402.38
2022-12-20T20:00:49.733Z,62402.38
2022-12-20T20:03:18.612Z,62402.38
2022-12-20T20:05:45.445Z,62402.38
2022-12-20T20:08:12.256Z,62402.38
2022-12-20T20:10:39.102Z,62402.38
2022-12-20T20:13:06.304Z,62402.38
2022-12-20T20:15:33.245Z,62402.38
2022-12-20T20:18:00.594Z,62402.38
2022-12-20T20:20:28.685Z,62402.38
2022-12-20T20:22:55.468Z,62402.38
2022-12-20T20:25:22.464Z,62402.38
2022-12-20T20:27:49.197Z,62402.38
2022-12-20T20:30:16.559Z,62402.38
2022-12-20T20:32:43.437Z,62402.38
2022-12-20T20:35:11.047Z,62402.38
2022-12-20T20:37:39.916Z,62402.38
2022-12-20T20:40:08.054Z,97472.22
2022-12-20T20:42:35.781Z,97467.69
2022-12-20T20:45:03.493Z,97458.16
2022-12-20T20:47:30.983Z,97463.56
2022-12-20T20:49:57.670Z,97461.94
2022-12-20T20:52:24.298Z,97463.06
2022-12-20T20:54:52.395Z,97468.00
2022-12-20T20:57:19.149Z,97457.16
2022-12-20T20:59:45.908Z,97456.34
2022-12-20T21:02:14.329Z,97451.22
2022-12-20T21:04:41.213Z,97456.13
2022-12-20T21:07:07.946Z,97458.84
2022-12-20T21:09:34.642Z,97459.91
2022-12-20T21:12:03.911Z,97448.81
2022-12-20T21:15:10.556Z,97452.88
2022-12-20T21:17:17.955Z,97452.00
2022-12-20T21:19:44.721Z,97456.63
2022-12-20T21:22:11.447Z,97450.72
2022-12-20T21:24:38.300Z,97454.81
2022-12-20T21:27:06.546Z,97445.69
2022-12-20T21:29:33.223Z,97437.25
2022-12-20T21:32:00.241Z,97448.38
2022-12-20T21:34:27.171Z,62402.38
2022-12-20T21:36:54.260Z,62402.38
2022-12-20T21:39:21.194Z,62402.38
2022-12-20T21:41:48.426Z,97448.38
2022-12-20T21:44:16.583Z,97425.56
2022-12-20T21:46:43.311Z,97427.19
2022-12-20T21:49:10.627Z,97428.19
2022-12-20T21:51:37.367Z,97426.88
2022-12-20T21:54:04.255Z,97423.63
2022-12-20T21:56:32.773Z,97421.00
2022-12-20T21:59:00.090Z,97418.53
2022-12-20T22:01:30.080Z,97411.22
2022-12-20T22:03:59.563Z,97413.19
2022-12-20T22:06:28.147Z,97410.72
2022-12-20T22:08:56.795Z,97409.13
2022-12-20T22:11:23.727Z,97405.31
2022-12-20T22:13:55.545Z,97394.75
2022-12-20T22:16:28.014Z,97392.88
2022-12-20T22:18:57.274Z,97383.41
2022-12-20T22:21:26.069Z,97402.06
2022-12-20T22:23:54.110Z,97390.72
2022-12-20T22:26:22.574Z,97389.19
2022-12-20T22:28:51.840Z,62402.38
2022-12-20T22:31:19.469Z,62402.38
2022-12-20T22:33:46.647Z,62402.38
2022-12-20T22:36:15.966Z,97389.19
2022-12-20T22:38:43.508Z,97384.59
2022-12-20T22:41:12.595Z,97391.09
2022-12-20T22:43:40.958Z,97380.84
2022-12-20T22:46:10.563Z,97389.47
2022-12-20T22:48:38.213Z,97384.94
2022-12-20T22:51:08.509Z,97380.44
2022-12-20T22:53:37.615Z,97382.81
2022-12-20T22:56:05.176Z,97380.91
2022-12-20T22:58:32.472Z,97385.28
2022-12-20T23:01:00.282Z,97382.63
2022-12-20T23:03:28.349Z,97376.41
2022-12-20T23:05:56.836Z,97376.34
2022-12-20T23:08:26.087Z,97379.94
2022-12-20T23:11:12.376Z,97381.31
2022-12-20T23:13:58.260Z,97377.28
2022-12-20T23:16:25.859Z,97376.75
2022-12-20T23:18:54.162Z,97371.84
2022-12-20T23:21:39.600Z,97368.66
2022-12-20T23:24:06.713Z,97367.56
2022-12-20T23:26:36.098Z,97366.47
2022-12-20T23:29:04.417Z,97364.84
2022-12-20T23:31:31.269Z,97368.50
2022-12-20T23:33:58.360Z,97365.34
2022-12-20T23:36:25.495Z,97369.16
2022-12-20T23:38:52.178Z,97366.75
2022-12-20T23:41:18.980Z,97371.31
2022-12-20T23:43:47.383Z,97359.69
2022-12-20T23:46:17.455Z,97357.34
2022-12-20T23:48:44.364Z,97353.34
2022-12-20T23:51:11.600Z,97360.59
2022-12-20T23:53:38.458Z,97341.50
2022-12-20T23:56:08.053Z,97350.91
2022-12-20T23:58:34.854Z,97357.16
